KRBG/RBG METAR and TAF weather

Enter ICAO airport designator
Station Type Date Time Source
KRBG METAR 2019/04/24 16:09 UTC NOAA

KRBG 241609Z AUTO 35007KT 10SM OVC015 11/06 A3025 RMK AO2 T01060056


Station Type Date Time Source
KRBG Decoded METAR 2019/04/24 16:09 UTC NOAA

ROSEBURG REGIONAL AIRPORT, OR, United States (KRBG) 43-14N 123-21W 154M
Apr 24, 2019 - 12:09 PM EDT / 2019.04.24 1609 UTC
Wind: from the N (350 degrees) at 8 MPH (7 KT):0
Visibility: 10 mile(s):0
Sky conditions: overcast
Temperature: 51.1 F (10.6 C)
Dew Point: 42.1 F (5.6 C)
Relative Humidity: 71%
Pressure (altimeter): 30.25 in. Hg (1024 hPa)
ob: KRBG 241609Z AUTO 35007KT 10SM OVC015 11/06 A3025 RMK AO2 T01060056
cycle: 16

Station Type Date Time Source
KRBG TAF 2019/04/24 12:42 UTC NOAA

TAF KRBG 241140Z 2412/2512 33007KT P6SM OVC012
FM241700 36007KT P6SM FEW015
FM242100 36012G18KT P6SM SKC
FM250400 VRB03KT P6SM SCT250

Example: see airport list